Time;durP1;ratioP1;P1;durP2;ratioP2;P2;SDS_P1;SDS_P2;PMS_P1;PMS_P2;Temp;Humidity;BMP_temperature;BMP_pressure;BME280_temperature;BME280_humidity;BME280_pressure;Samples;Min_cycle;Max_cycle;Signal;HPM_P1;HPM_P2
2021/01/29 08:01:11;;;;;;;1999.90;999.90;;;27.00;41.10;;;;;;5089094;27;20551;-47
2021/01/29 08:03:53;;;;;;;1999.90;999.90;;;29.50;37.80;;;;;;5089629;28;20244;-55
2021/01/29 08:06:45;;;;;;;1999.90;999.90;;;29.10;36.80;;;;;;5090197;28;20179;-58
2021/01/29 08:09:51;;;;;;;1999.90;999.90;;;27.90;38.00;;;;;;5089317;28;20219;-54
2021/01/29 08:12:20;;;;;;;1999.90;999.90;;;27.60;39.40;;;;;;5047057;28;20280;-55
2021/01/29 08:15:15;;;;;;;1999.90;999.90;;;27.60;38.90;;;;;;5082631;28;20187;-47
2021/01/29 08:17:45;;;;;;;1999.90;999.90;;;28.50;39.30;;;;;;5089574;28;20160;-48
2021/01/29 08:20:32;;;;;;;1999.90;999.90;;;30.20;35.50;;;;;;5089305;28;20396;-56
2021/01/29 08:23:27;;;;;;;1999.90;999.90;;;30.50;35.50;;;;;;5089538;28;20677;-58
2021/01/29 08:25:56;;;;;;;1999.90;999.90;;;31.60;32.70;;;;;;5089994;28;20603;-62
2021/01/29 08:28:51;;;;;;;1999.90;999.90;;;31.30;32.40;;;;;;5089691;28;20168;-45
2021/01/29 08:31:36;;;;;;;1999.90;999.90;;;31.60;32.10;;;;;;5088546;28;20633;-58
2021/01/29 08:34:30;;;;;;;1999.90;999.90;;;32.00;31.60;;;;;;5089363;28;20233;-59
2021/01/29 08:37:11;;;;;;;1999.90;999.90;;;32.30;31.40;;;;;;5089694;28;20160;-52
2021/01/29 08:39:50;;;;;;;1999.90;999.90;;;30.90;32.90;;;;;;5089590;28;20196;-55
2021/01/29 08:42:52;;;;;;;1999.90;999.90;;;31.40;32.40;;;;;;5089229;28;20239;-49
2021/01/29 08:45:51;;;;;;;1999.90;999.90;;;30.90;32.30;;;;;;5072578;28;20179;-52
2021/01/29 08:48:39;;;;;;;1999.90;999.90;;;31.10;32.60;;;;;;5088205;28;20176;-62
2021/01/29 08:51:27;;;;;;;1999.90;999.90;;;32.30;30.90;;;;;;5088803;28;20164;-55
2021/01/29 08:54:09;;;;;;;1999.90;999.90;;;32.50;30.40;;;;;;5089124;28;20164;-50
2021/01/29 08:57:08;;;;;;;1999.90;999.90;;;32.90;29.30;;;;;;5088898;28;20156;-47
2021/01/29 08:59:39;;;;;;;1999.90;999.90;;;32.70;29.20;;;;;;5088275;28;20262;-53
2021/01/29 09:02:42;;;;;;;1999.90;999.90;;;32.90;28.70;;;;;;5089451;28;20157;-53
2021/01/29 09:05:13;;;;;;;1999.90;999.90;;;33.40;28.00;;;;;;5076261;28;20180;-56
2021/01/29 09:07:41;;;;;;;1999.90;999.90;;;33.10;29.20;;;;;;5088951;28;20701;-48
2021/01/29 09:10:19;;;;;;;1999.90;999.90;;;33.20;28.40;;;;;;5086873;28;20176;-52
2021/01/29 09:12:55;;;;;;;1999.90;999.90;;;33.20;28.00;;;;;;5074656;28;20563;-47
2021/01/29 09:15:46;;;;;;;1999.90;999.90;;;33.30;28.40;;;;;;5074879;28;20247;-55
2021/01/29 09:18:17;;;;;;;1999.90;999.90;;;32.70;28.70;;;;;;5075061;28;20229;-58
2021/01/29 09:21:08;;;;;;;1999.90;999.90;;;31.60;29.70;;;;;;5074420;28;20283;-61
2021/01/29 09:24:10;;;;;;;1999.90;999.90;;;32.60;29.30;;;;;;5074066;28;20183;-54
2021/01/29 09:27:02;;;;;;;1999.90;999.90;;;31.40;29.70;;;;;;5074807;28;20164;-51
2021/01/29 09:29:32;;;;;;;1999.90;999.90;;;30.30;31.90;;;;;;5063750;28;20195;-45
2021/01/29 09:32:12;;;;;;;1999.90;999.90;;;30.10;32.40;;;;;;5074554;28;20207;-52
2021/01/29 09:34:50;;;;;;;1999.90;999.90;;;30.60;31.50;;;;;;5074648;28;20172;-51
2021/01/29 09:37:28;;;;;;;1999.90;999.90;;;30.90;30.90;;;;;;5074412;28;20152;-53
2021/01/29 09:39:56;;;;;;;1999.90;999.90;;;30.20;31.80;;;;;;5073357;28;20215;-48
2021/01/29 09:42:41;;;;;;;1999.90;999.90;;;30.40;31.70;;;;;;5074673;28;20601;-62
2021/01/29 09:45:17;;;;;;;1999.90;999.90;;;31.20;30.30;;;;;;5074519;28;20218;-46
2021/01/29 09:47:47;;;;;;;1999.90;999.90;;;31.10;29.30;;;;;;5074247;28;20153;-60
2021/01/29 09:50:23;;;;;;;1999.90;999.90;;;31.70;28.90;;;;;;5074254;28;20448;-53
2021/01/29 10:04:51;;;;;;;1999.90;999.90;;;32.80;26.50;;;;;;5090336;27;20550;-60
2021/01/29 10:07:22;;;;;;;1999.90;999.90;;;32.80;26.50;;;;;;5086372;28;20199;-55
2021/01/29 10:10:09;;;;;;;1999.90;999.90;;;32.70;25.90;;;;;;5090126;28;20243;-50
2021/01/29 10:12:41;;;;;;;1999.90;999.90;;;30.90;27.60;;;;;;5089751;28;20703;-55
2021/01/29 10:15:21;;;;;;;1999.90;999.90;;;29.60;28.90;;;;;;5089801;28;20179;-52
2021/01/29 10:18:20;;;;;;;1999.90;999.90;;;29.00;29.20;;;;;;5089734;28;20156;-52
2021/01/29 10:20:48;;;;;;;1999.90;999.90;;;29.70;29.20;;;;;;5082450;28;20236;-53
2021/01/29 10:23:26;;;;;;;1999.90;999.90;;;30.70;28.00;;;;;;5088388;28;20167;-48
2021/01/29 10:26:26;;;;;;;1999.90;999.90;;;30.90;26.90;;;;;;5088367;28;20607;-53
2021/01/29 10:29:02;;;;;;;1999.90;999.90;;;31.40;27.40;;;;;;5088205;28;20243;-50
2021/01/29 10:31:39;;;;;;;1999.90;999.90;;;32.70;26.50;;;;;;5071139;28;20542;-50
2021/01/29 10:34:48;;;;;;;1999.90;999.90;;;33.50;25.30;;;;;;5089558;28;20168;-53
2021/01/29 10:37:32;;;;;;;1999.90;999.90;;;33.70;24.30;;;;;;5035349;28;20194;-55
2021/01/29 10:40:24;;;;;;;1999.90;999.90;;;34.30;24.30;;;;;;5089506;28;20586;-55
2021/01/29 10:43:13;;;;;;;1999.90;999.90;;;34.20;24.00;;;;;;5089878;28;20152;-51
2021/01/29 10:45:53;;;;;;;1999.90;999.90;;;33.90;23.70;;;;;;5089412;28;20159;-46
2021/01/29 10:48:43;;;;;;;1999.90;999.90;;;33.40;25.20;;;;;;5089537;28;20156;-51
2021/01/29 10:51:29;;;;;;;1999.90;999.90;;;33.80;23.30;;;;;;5089249;28;20614;-55
2021/01/29 10:54:02;;;;;;;1999.90;999.90;;;34.00;23.80;;;;;;5089288;28;20644;-57
2021/01/29 10:57:01;;;;;;;1999.90;999.90;;;34.30;23.20;;;;;;5089003;28;20195;-53
2021/01/29 10:59:36;;;;;;;1999.90;999.90;;;34.50;22.70;;;;;;5089189;28;20167;-52
2021/01/29 11:02:09;;;;;;;1999.90;999.90;;;34.60;24.00;;;;;;5088918;28;20253;-58
2021/01/29 11:04:46;;;;;;;1999.90;999.90;;;34.30;24.20;;;;;;5093569;28;20177;-51
2021/01/29 11:07:30;;;;;;;1999.90;999.90;;;33.90;23.90;;;;;;5074927;28;20176;-44
2021/01/29 11:10:20;;;;;;;1999.90;999.90;;;33.40;22.40;;;;;;5073460;28;20160;-38
2021/01/29 11:13:08;;;;;;;1999.90;999.90;;;33.40;24.50;;;;;;5074308;28;20656;-57
2021/01/29 11:15:47;;;;;;;1999.90;999.90;;;33.00;25.50;;;;;;5075464;28;20217;-52
2021/01/29 11:18:34;;;;;;;1999.90;999.90;;;32.70;25.30;;;;;;5075434;28;20172;-56
2021/01/29 11:21:30;;;;;;;1999.90;999.90;;;32.00;25.30;;;;;;5074236;28;20650;-55
2021/01/29 11:24:33;;;;;;;1999.90;999.90;;;32.60;25.00;;;;;;5075165;28;20493;-43
2021/01/29 11:27:05;;;;;;;1999.90;999.90;;;32.20;24.60;;;;;;5069698;28;20219;-57
2021/01/29 11:29:46;;;;;;;1999.90;999.90;;;32.00;25.00;;;;;;5074548;28;20461;-58
2021/01/29 11:32:28;;;;;;;1999.90;999.90;;;31.10;26.50;;;;;;5074787;28;20279;-57
2021/01/29 11:35:15;;;;;;;1999.90;999.90;;;30.70;27.10;;;;;;5075187;28;20239;-50
2021/01/29 11:38:08;;;;;;;1999.90;999.90;;;30.60;26.90;;;;;;5074839;28;20310;-48
2021/01/29 11:40:50;;;;;;;1999.90;999.90;;;30.40;27.40;;;;;;5027783;28;20400;-58
2021/01/29 11:43:46;;;;;;;1999.90;999.90;;;31.40;27.10;;;;;;5074752;28;20526;-59
2021/01/29 11:46:17;;;;;;;1999.90;999.90;;;32.10;26.40;;;;;;5074962;28;20157;-54
2021/01/29 11:49:03;;;;;;;1999.90;999.90;;;32.80;26.70;;;;;;5074723;28;20582;-55
2021/01/29 11:51:45;;;;;;;1999.90;999.90;;;33.70;28.10;;;;;;5057860;28;20282;-58
2021/01/29 11:54:26;;;;;;;1999.90;999.90;;;34.40;27.40;;;;;;5074609;28;20164;-56
2021/01/29 11:57:08;;;;;;;1999.90;999.90;;;34.30;27.40;;;;;;5074549;28;20153;-50
2021/01/29 12:00:08;;;;;;;1999.90;999.90;;;33.90;27.90;;;;;;5074619;28;20543;-54
2021/01/29 12:02:45;;;;;;;1999.90;999.90;;;33.30;28.70;;;;;;5074286;28;20212;-59
2021/01/29 12:05:18;;;;;;;1999.90;999.90;;;33.00;29.50;;;;;;5074509;28;20156;-53
2021/01/29 12:08:06;;;;;;;1999.90;999.90;;;33.10;29.50;;;;;;5074390;28;20161;-57
2021/01/29 12:10:46;;;;;;;1999.90;999.90;;;32.70;29.30;;;;;;5074439;28;20588;-58
2021/01/29 12:13:24;;;;;;;1999.90;999.90;;;32.60;29.50;;;;;;5074164;28;20281;-54
2021/01/29 12:16:03;;;;;;;1999.90;999.90;;;32.70;29.40;;;;;;5073171;28;20653;-53
2021/01/29 12:18:33;;;;;;;1999.90;999.90;;;32.40;29.30;;;;;;5074274;28;20188;-56
2021/01/29 12:21:17;;;;;;;1999.90;999.90;;;32.80;29.30;;;;;;5074231;28;20157;-60
2021/01/29 12:24:06;;;;;;;1999.90;999.90;;;33.00;28.70;;;;;;5074198;28;20161;-48
2021/01/29 12:27:04;;;;;;;1999.90;999.90;;;32.90;28.60;;;;;;5074079;28;20168;-55
2021/01/29 12:29:40;;;;;;;1999.90;999.90;;;32.80;28.90;;;;;;5074027;28;20160;-60
2021/01/29 12:32:33;;;;;;;1999.90;999.90;;;32.50;28.80;;;;;;5073663;28;20210;-48
2021/01/29 12:35:06;;;;;;;1999.90;999.90;;;32.30;28.90;;;;;;5036162;28;20200;-46
2021/01/29 12:37:40;;;;;;;1999.90;999.90;;;32.50;28.90;;;;;;5073652;28;20646;-51
2021/01/29 12:40:13;;;;;;;1999.90;999.90;;;32.30;28.60;;;;;;5073938;28;20160;-61
2021/01/29 12:42:43;;;;;;;1999.90;999.90;;;32.40;28.50;;;;;;5073756;28;20165;-60
2021/01/29 12:45:29;;;;;;;1999.90;999.90;;;32.60;28.80;;;;;;5073804;28;20521;-67
2021/01/29 12:48:17;;;;;;;1999.90;999.90;;;32.80;28.00;;;;;;5073583;28;20263;-58
2021/01/29 12:50:56;;;;;;;1999.90;999.90;;;32.80;27.60;;;;;;5073598;28;20157;-55
2021/01/29 12:53:41;;;;;;;1999.90;999.90;;;32.80;27.90;;;;;;5073446;28;20185;-53
2021/01/29 12:56:20;;;;;;;1999.90;999.90;;;32.50;28.60;;;;;;5073522;28;20568;-50
2021/01/29 12:58:54;;;;;;;1999.90;999.90;;;32.50;29.30;;;;;;5073350;28;20169;-52
2021/01/29 13:01:36;;;;;;;1999.90;999.90;;;32.50;28.20;;;;;;5073373;28;20157;-61
2021/01/29 13:04:08;;;;;;;1999.90;999.90;;;32.20;28.90;;;;;;5073261;28;20216;-56
2021/01/29 13:06:49;;;;;;;1999.90;999.90;;;32.30;29.40;;;;;;5072979;28;20180;-59
2021/01/29 13:09:25;;;;;;;1999.90;999.90;;;32.50;29.50;;;;;;5073271;28;20532;-49
2021/01/29 13:12:22;;;;;;;1999.90;999.90;;;32.30;29.70;;;;;;5073021;28;20199;-54
2021/01/29 13:15:02;;;;;;;1999.90;999.90;;;32.30;29.00;;;;;;5073133;28;20733;-60
2021/01/29 13:17:39;;;;;;;1999.90;999.90;;;32.20;29.40;;;;;;5073022;28;20213;-57
2021/01/29 13:20:11;;;;;;;1999.90;999.90;;;31.60;30.70;;;;;;5073028;28;20622;-45
2021/01/29 13:22:45;;;;;;;1999.90;999.90;;;31.40;31.30;;;;;;5072546;28;20153;-57
2021/01/29 13:25:24;;;;;;;1999.90;999.90;;;31.40;29.80;;;;;;5072926;28;20161;-56
2021/01/29 13:28:01;;;;;;;1999.90;999.90;;;31.20;30.30;;;;;;5072812;28;20152;-52
2021/01/29 13:30:42;;;;;;;1999.90;999.90;;;31.30;30.60;;;;;;5073011;28;20160;-50
2021/01/29 13:33:21;;;;;;;1999.90;999.90;;;31.20;31.20;;;;;;5072822;28;20669;-52
2021/01/29 13:36:00;;;;;;;1999.90;999.90;;;30.90;30.90;;;;;;5072760;28;20152;-57
2021/01/29 13:38:34;;;;;;;1999.90;999.90;;;31.00;31.20;;;;;;5072649;28;20160;-52
2021/01/29 13:41:16;;;;;;;1999.90;999.90;;;30.90;32.60;;;;;;5072976;28;20238;-48
2021/01/29 13:43:45;;;;;;;1999.90;999.90;;;30.60;31.50;;;;;;5072964;28;20165;-50
2021/01/29 13:46:32;;;;;;;1999.90;999.90;;;30.50;32.90;;;;;;5072696;28;20654;-49
2021/01/29 13:49:32;;;;;;;1999.90;999.90;;;30.70;32.20;;;;;;5054710;28;20173;-47
2021/01/29 13:52:00;;;;;;;1999.90;999.90;;;30.80;32.70;;;;;;5072698;28;20230;-55
2021/01/29 13:54:35;;;;;;;1999.90;999.90;;;30.60;32.20;;;;;;5072671;28;20255;-54
2021/01/29 13:57:32;;;;;;;1999.90;999.90;;;30.70;31.70;;;;;;5072773;28;20184;-50
2021/01/29 14:00:24;;;;;;;1999.90;999.90;;;30.80;31.50;;;;;;5072776;28;20575;-48
2021/01/29 14:03:00;;;;;;;1999.90;999.90;;;30.60;33.20;;;;;;5072477;28;20227;-55
2021/01/29 14:05:28;;;;;;;1999.90;999.90;;;30.70;32.10;;;;;;5072597;28;20156;-57
2021/01/29 14:08:00;;;;;;;1999.90;999.90;;;30.70;33.20;;;;;;5072598;28;20259;-56
2021/01/29 14:10:33;;;;;;;1999.90;999.90;;;30.40;34.00;;;;;;5072716;28;20192;-53
2021/01/29 14:13:12;;;;;;;1999.90;999.90;;;30.20;34.50;;;;;;5072591;28;20773;-54
2021/01/29 14:15:48;;;;;;;1999.90;999.90;;;30.30;33.90;;;;;;5072745;28;20537;-50
2021/01/29 14:18:47;;;;;;;1999.90;999.90;;;30.20;34.50;;;;;;5072716;28;20251;-54
2021/01/29 14:21:31;;;;;;;1999.90;999.90;;;29.90;36.20;;;;;;5072515;28;20153;-58
2021/01/29 14:24:27;;;;;;;1999.90;999.90;;;30.00;35.70;;;;;;5072521;28;20156;-59
2021/01/29 14:27:31;;;;;;;1999.90;999.90;;;29.80;35.70;;;;;;5072354;28;20157;-57
2021/01/29 14:30:19;;;;;;;1999.90;999.90;;;29.70;36.20;;;;;;5017489;28;20211;-55
2021/01/29 14:32:46;;;;;;;1999.90;999.90;;;29.80;36.50;;;;;;5072432;28;20662;-47
2021/01/29 14:35:44;;;;;;;1999.90;999.90;;;29.30;37.80;;;;;;5072520;28;20226;-50
2021/01/29 14:38:32;;;;;;;1999.90;999.90;;;29.20;37.90;;;;;;5054594;28;20204;-54
2021/01/29 14:41:27;;;;;;;1999.90;999.90;;;29.00;37.80;;;;;;5076107;28;20196;-54
2021/01/29 14:44:17;;;;;;;1999.90;999.90;;;29.00;38.90;;;;;;5076081;28;20157;-53
2021/01/29 14:47:09;;;;;;;1999.90;999.90;;;29.10;38.50;;;;;;5076122;28;20160;-59
2021/01/29 14:49:49;;;;;;;1999.90;999.90;;;28.90;38.00;;;;;;5075868;28;20168;-56
2021/01/29 14:52:17;;;;;;;1999.90;999.90;;;28.80;38.50;;;;;;5075812;28;20224;-57
2021/01/29 14:54:50;;;;;;;1999.90;999.90;;;28.60;37.80;;;;;;5075793;28;20218;-49
2021/01/29 14:57:29;;;;;;;1999.90;999.90;;;28.90;39.10;;;;;;5075749;28;20168;-57
2021/01/29 14:59:59;;;;;;;1999.90;999.90;;;29.20;37.70;;;;;;5075809;28;20244;-55
2021/01/29 15:02:53;;;;;;;1999.90;999.90;;;29.10;38.20;;;;;;5075521;28;20255;-51
2021/01/29 15:05:35;;;;;;;1999.90;999.90;;;28.90;38.40;;;;;;5071700;28;20669;-47
2021/01/29 15:08:03;;;;;;;1999.90;999.90;;;28.80;38.20;;;;;;5075602;28;20239;-58
2021/01/29 15:10:39;;;;;;;1999.90;999.90;;;28.90;39.00;;;;;;5075583;28;20164;-58
2021/01/29 15:13:14;;;;;;;1999.90;999.90;;;29.20;38.20;;;;;;5075466;28;20203;-56
2021/01/29 15:15:48;;;;;;;1999.90;999.90;;;29.40;37.20;;;;;;5075609;28;20195;-46
2021/01/29 15:18:23;;;;;;;1999.90;999.90;;;29.50;37.10;;;;;;5075498;28;20168;-46
2021/01/29 15:20:51;;;;;;;1999.90;999.90;;;29.30;37.40;;;;;;5057373;28;20168;-49
2021/01/29 15:23:27;;;;;;;1999.90;999.90;;;29.20;38.80;;;;;;5075298;28;20197;-52
2021/01/29 15:25:53;;;;;;;1999.90;999.90;;;29.30;38.10;;;;;;5075214;28;20188;-49
2021/01/29 15:28:29;;;;;;;1999.90;999.90;;;29.20;38.60;;;;;;5075280;28;20214;-59
2021/01/29 15:30:57;;;;;;;1999.90;999.90;;;29.00;37.90;;;;;;5075230;28;20168;-54
2021/01/29 15:33:29;;;;;;;1999.90;999.90;;;28.90;38.50;;;;;;5075148;28;20204;-59
2021/01/29 15:36:14;;;;;;;1999.90;999.90;;;28.80;38.60;;;;;;5075076;28;20177;-58
2021/01/29 15:39:01;;;;;;;1999.90;999.90;;;28.90;38.90;;;;;;5075215;28;20169;-55
2021/01/29 15:41:44;;;;;;;1999.90;999.90;;;29.10;37.90;;;;;;5074758;28;20179;-57
2021/01/29 15:44:35;;;;;;;1999.90;999.90;;;28.90;39.10;;;;;;5075027;28;20163;-54
2021/01/29 15:47:21;;;;;;;1999.90;999.90;;;28.80;40.20;;;;;;5074781;28;20176;-59
2021/01/29 15:49:48;;;;;;;1999.90;999.90;;;28.70;40.10;;;;;;5074870;28;20156;-46
2021/01/29 15:52:45;;;;;;;1999.90;999.90;;;28.80;40.00;;;;;;5074930;28;20188;-59
2021/01/29 15:55:41;;;;;;;1999.90;999.90;;;28.70;39.70;;;;;;5074750;28;20160;-56
2021/01/29 15:58:10;;;;;;;1999.90;999.90;;;28.90;38.50;;;;;;5074695;28;20566;-59
2021/01/29 16:00:37;;;;;;;1999.90;999.90;;;29.00;39.30;;;;;;5074566;28;20165;-56
2021/01/29 16:03:05;;;;;;;1999.90;999.90;;;28.80;39.00;;;;;;5074393;28;20554;-60
2021/01/29 16:05:38;;;;;;;1999.90;999.90;;;28.80;40.10;;;;;;5074401;28;20176;-58
2021/01/29 16:08:31;;;;;;;1999.90;999.90;;;28.80;40.60;;;;;;5074590;28;20153;-59
2021/01/29 16:11:26;;;;;;;1999.90;999.90;;;28.80;41.10;;;;;;5074370;28;20161;-59
2021/01/29 16:13:54;;;;;;;1999.90;999.90;;;28.80;40.60;;;;;;5074276;28;20279;-58
2021/01/29 16:16:27;;;;;;;1999.90;999.90;;;28.60;41.00;;;;;;5074340;28;20188;-58
2021/01/29 16:18:57;;;;;;;1999.90;999.90;;;28.60;40.80;;;;;;5074074;28;20160;-58
2021/01/29 16:21:44;;;;;;;1999.90;999.90;;;28.60;40.60;;;;;;5074278;28;20160;-59
2021/01/29 16:24:13;;;;;;;1999.90;999.90;;;28.50;40.40;;;;;;5074174;28;20642;-45
2021/01/29 16:26:44;;;;;;;1999.90;999.90;;;28.40;41.70;;;;;;5074093;28;20281;-55
2021/01/29 16:29:15;;;;;;;1999.90;999.90;;;28.30;41.70;;;;;;5074196;28;20169;-49
2021/01/29 16:31:47;;;;;;;1999.90;999.90;;;28.30;42.40;;;;;;5073961;28;20172;-49
2021/01/29 16:34:23;;;;;;;1999.90;999.90;;;28.30;42.20;;;;;;5073915;28;20251;-57
2021/01/29 16:37:11;;;;;;;1999.90;999.90;;;28.20;42.90;;;;;;5074139;28;20161;-58
2021/01/29 16:39:40;;;;;;;1999.90;999.90;;;28.10;42.50;;;;;;5073851;28;20163;-49
2021/01/29 16:42:22;;;;;;;1999.90;999.90;;;28.00;42.70;;;;;;5073711;28;20169;-46
2021/01/29 16:45:19;;;;;;;1999.90;999.90;;;27.90;43.10;;;;;;5073768;28;20222;-44
2021/01/29 16:47:57;;;;;;;1999.90;999.90;;;27.90;43.00;;;;;;5073699;28;20173;-50
2021/01/29 16:50:30;;;;;;;1999.90;999.90;;;27.70;43.30;;;;;;5073479;28;20499;-55
2021/01/29 16:53:09;;;;;;;1999.90;999.90;;;27.80;43.20;;;;;;5073390;28;20207;-54
2021/01/29 16:55:39;;;;;;;1999.90;999.90;;;27.80;43.20;;;;;;5073486;28;20168;-48
2021/01/29 16:58:29;;;;;;;1999.90;999.90;;;27.60;43.90;;;;;;5074063;28;20168;-49
2021/01/29 17:01:37;;;;;;;1999.90;999.90;;;27.50;43.90;;;;;;5073155;28;20210;-46
2021/01/29 17:04:10;;;;;;;1999.90;999.90;;;27.20;44.60;;;;;;5072961;28;20216;-50
2021/01/29 17:06:50;;;;;;;1999.90;999.90;;;26.90;45.60;;;;;;5073269;28;20160;-47
2021/01/29 17:09:28;;;;;;;1999.90;999.90;;;26.80;46.30;;;;;;5073185;28;20183;-58
2021/01/29 17:11:55;;;;;;;1999.90;999.90;;;26.70;46.40;;;;;;5073230;28;20188;-47
2021/01/29 17:14:28;;;;;;;1999.90;999.90;;;26.50;46.80;;;;;;5073423;28;20168;-57
2021/01/29 17:16:58;;;;;;;1999.90;999.90;;;26.30;47.10;;;;;;5073364;28;20203;-46
2021/01/29 17:19:31;;;;;;;1999.90;999.90;;;26.30;47.50;;;;;;5073677;28;20171;-49
2021/01/29 17:22:03;;;;;;;1999.90;999.90;;;26.20;47.50;;;;;;5073144;28;20165;-50
2021/01/29 17:24:41;;;;;;;1999.90;999.90;;;26.20;47.60;;;;;;5073176;28;20148;-57
2021/01/29 17:27:12;;;;;;;1999.90;999.90;;;26.20;47.40;;;;;;5073058;28;20157;-46
2021/01/29 17:29:49;;;;;;;1999.90;999.90;;;26.10;47.20;;;;;;5073011;28;20513;-55
2021/01/29 17:32:32;;;;;;;1999.90;999.90;;;26.00;47.80;;;;;;5072824;28;20278;-54
2021/01/29 17:35:10;;;;;;;1999.90;999.90;;;25.80;50.00;;;;;;5072986;28;20169;-58
2021/01/29 17:37:38;;;;;;;1999.90;999.90;;;25.70;50.70;;;;;;5072848;28;20222;-59
2021/01/29 17:40:31;;;;;;;1999.90;999.90;;;25.50;50.80;;;;;;5054915;28;20176;-53
2021/01/29 17:42:59;;;;;;;1999.90;999.90;;;25.40;50.40;;;;;;5072905;28;20247;-55
2021/01/29 17:45:33;;;;;;;1999.90;999.90;;;25.30;50.70;;;;;;5072718;28;20183;-56
2021/01/29 17:48:15;;;;;;;1999.90;999.90;;;25.20;51.00;;;;;;5072706;28;20188;-58
2021/01/29 17:50:45;;;;;;;1999.90;999.90;;;25.20;50.50;;;;;;5072712;28;20536;-59
2021/01/29 17:53:51;;;;;;;1999.90;999.90;;;25.00;50.70;;;;;;5072425;28;20204;-57
2021/01/29 17:56:48;;;;;;;1999.90;999.90;;;24.90;51.60;;;;;;5072701;28;20164;-58
2021/01/29 17:59:15;;;;;;;1999.90;999.90;;;24.70;52.30;;;;;;5072673;28;20219;-57
2021/01/29 18:01:47;;;;;;;1999.90;999.90;;;24.30;53.40;;;;;;5072283;28;20168;-55
2021/01/29 18:04:27;;;;;;;1999.90;999.90;;;24.20;53.80;;;;;;5072414;28;20508;-54
2021/01/29 18:07:15;;;;;;;1999.90;999.90;;;24.10;54.20;;;;;;5072500;28;20156;-51
2021/01/29 18:09:57;;;;;;;1999.90;999.90;;;24.00;54.50;;;;;;5072551;28;20614;-59
2021/01/29 18:12:30;;;;;;;1999.90;999.90;;;23.80;55.30;;;;;;5072447;28;20662;-59
2021/01/29 18:15:14;;;;;;;1999.90;999.90;;;23.80;54.90;;;;;;5075752;28;20168;-60
2021/01/29 18:17:53;;;;;;;1999.90;999.90;;;23.80;55.40;;;;;;5076488;28;20164;-51
2021/01/29 18:20:20;;;;;;;1999.90;999.90;;;23.70;56.20;;;;;;5076339;28;20164;-57
2021/01/29 18:22:48;;;;;;;1999.90;999.90;;;23.40;57.30;;;;;;5076344;28;20165;-57
2021/01/29 18:25:16;;;;;;;1999.90;999.90;;;23.20;58.10;;;;;;5058329;28;20181;-55
2021/01/29 18:27:43;;;;;;;1999.90;999.90;;;23.10;58.70;;;;;;5076197;28;20226;-55
2021/01/29 18:30:11;;;;;;;1999.90;999.90;;;22.90;59.40;;;;;;5076223;28;20164;-59
2021/01/29 18:32:45;;;;;;;1999.90;999.90;;;22.70;60.10;;;;;;5076217;28;20204;-58
2021/01/29 18:35:13;;;;;;;1999.90;999.90;;;22.60;60.80;;;;;;5076199;28;20231;-59
2021/01/29 18:37:40;;;;;;;1999.90;999.90;;;22.60;61.00;;;;;;5076067;28;20233;-60
2021/01/29 18:40:08;;;;;;;1999.90;999.90;;;22.60;61.20;;;;;;5076074;28;20251;-60
2021/01/29 18:42:35;;;;;;;1999.90;999.90;;;22.60;61.50;;;;;;5075997;28;20167;-54
2021/01/29 18:45:03;;;;;;;1999.90;999.90;;;22.50;61.80;;;;;;5076003;28;20172;-52
2021/01/29 18:47:30;;;;;;;1999.90;999.90;;;22.50;61.70;;;;;;5076058;28;20658;-58
2021/01/29 18:49:57;;;;;;;1999.90;999.90;;;22.50;61.60;;;;;;5075933;28;20176;-59
2021/01/29 18:52:24;;;;;;;1999.90;999.90;;;22.50;61.90;;;;;;5075825;28;20215;-60
2021/01/29 18:54:52;;;;;;;1999.90;999.90;;;22.40;62.50;;;;;;5075871;28;20196;-60
2021/01/29 18:57:19;;;;;;;1999.90;999.90;;;22.30;63.20;;;;;;5075814;28;20161;-59
2021/01/29 18:59:45;;;;;;;1999.90;999.90;;;22.30;63.30;;;;;;5075765;28;20180;-60
2021/01/29 19:02:19;;;;;;;1999.90;999.90;;;22.20;63.50;;;;;;5075465;28;20394;-60
2021/01/29 19:04:50;;;;;;;1999.90;999.90;;;22.10;63.80;;;;;;5075598;28;20531;-59
2021/01/29 19:07:17;;;;;;;1999.90;999.90;;;22.10;64.30;;;;;;5075828;28;20165;-60
2021/01/29 19:09:44;;;;;;;1999.90;999.90;;;22.10;64.70;;;;;;5075628;28;20169;-60
2021/01/29 19:12:13;;;;;;;1999.90;999.90;;;22.10;64.80;;;;;;5075577;28;20203;-60
2021/01/29 19:14:41;;;;;;;1999.90;999.90;;;22.00;64.90;;;;;;5075589;28;20169;-56
2021/01/29 19:17:09;;;;;;;1999.90;999.90;;;22.00;65.30;;;;;;5075605;28;20195;-60
2021/01/29 19:19:37;;;;;;;1999.90;999.90;;;22.10;65.30;;;;;;5075433;28;20169;-53
2021/01/29 19:22:05;;;;;;;1999.90;999.90;;;22.10;65.00;;;;;;5075513;28;20161;-60
2021/01/29 19:24:33;;;;;;;1999.90;999.90;;;22.10;65.30;;;;;;5074963;28;20566;-54
2021/01/29 19:27:00;;;;;;;1999.90;999.90;;;21.90;65.70;;;;;;5075201;28;20176;-54
2021/01/29 19:29:27;;;;;;;1999.90;999.90;;;21.90;66.20;;;;;;5075094;28;20187;-56
2021/01/29 19:31:56;;;;;;;1999.90;999.90;;;21.80;66.10;;;;;;5075156;28;20227;-60
2021/01/29 19:34:23;;;;;;;1999.90;999.90;;;21.90;65.40;;;;;;5075283;28;20656;-60
2021/01/29 19:36:50;;;;;;;1999.90;999.90;;;22.00;65.00;;;;;;5075153;28;20243;-55
2021/01/29 19:39:17;;;;;;;1999.90;999.90;;;22.10;64.70;;;;;;5075016;28;20169;-57
2021/01/29 19:41:45;;;;;;;1999.90;999.90;;;22.10;64.70;;;;;;5074912;28;20253;-60
2021/01/29 19:44:12;;;;;;;1999.90;999.90;;;22.00;64.50;;;;;;5074985;28;20172;-59
2021/01/29 19:46:39;;;;;;;1999.90;999.90;;;22.00;64.70;;;;;;5074991;28;20207;-59
2021/01/29 19:49:06;;;;;;;1999.90;999.90;;;22.00;65.60;;;;;;5075031;28;20168;-57
2021/01/29 19:51:33;;;;;;;1999.90;999.90;;;21.90;65.80;;;;;;5074931;28;20172;-59
2021/01/29 19:53:59;;;;;;;1999.90;999.90;;;21.80;65.80;;;;;;5074832;28;20278;-60
2021/01/29 19:56:32;;;;;;;1999.90;999.90;;;21.70;65.90;;;;;;5074778;28;20168;-52
2021/01/29 19:58:59;;;;;;;1999.90;999.90;;;21.70;65.80;;;;;;5074812;28;20160;-54
2021/01/29 20:01:26;;;;;;;1999.90;999.90;;;21.70;66.40;;;;;;5074645;28;20172;-58
2021/01/29 20:03:53;;;;;;;1999.90;999.90;;;21.80;67.00;;;;;;5074486;28;20682;-56
2021/01/29 20:06:20;;;;;;;1999.90;999.90;;;21.80;67.00;;;;;;5074508;28;20264;-54
2021/01/29 20:08:47;;;;;;;1999.90;999.90;;;21.80;67.30;;;;;;5074778;28;20566;-57
2021/01/29 20:11:17;;;;;;;1999.90;999.90;;;21.60;67.70;;;;;;5074456;28;20173;-56
2021/01/29 20:13:44;;;;;;;1999.90;999.90;;;21.60;68.10;;;;;;5074351;28;20251;-60
2021/01/29 20:16:11;;;;;;;1999.90;999.90;;;21.50;68.40;;;;;;5074411;28;20165;-60
2021/01/29 20:18:39;;;;;;;1999.90;999.90;;;21.40;68.90;;;;;;5074323;28;20183;-53
2021/01/29 20:21:06;;;;;;;1999.90;999.90;;;21.50;69.10;;;;;;5074393;28;20835;-56
2021/01/29 20:23:32;;;;;;;1999.90;999.90;;;21.40;69.40;;;;;;5074258;28;20172;-59
2021/01/29 20:25:59;;;;;;;1999.90;999.90;;;21.20;70.20;;;;;;5074098;28;20184;-57
2021/01/29 20:28:27;;;;;;;1999.90;999.90;;;21.20;70.50;;;;;;5074138;28;20692;-53
2021/01/29 20:30:55;;;;;;;1999.90;999.90;;;21.10;70.80;;;;;;5074038;28;20536;-60
2021/01/29 20:33:24;;;;;;;1999.90;999.90;;;21.00;70.90;;;;;;5073952;28;20203;-57
2021/01/29 20:35:52;;;;;;;1999.90;999.90;;;21.00;70.90;;;;;;5073350;28;20283;-59
2021/01/29 20:38:18;;;;;;;1999.90;999.90;;;21.00;71.10;;;;;;5073549;28;20177;-59
2021/01/29 20:40:45;;;;;;;1999.90;999.90;;;21.00;71.00;;;;;;5073841;28;20225;-58
2021/01/29 20:43:12;;;;;;;1999.90;999.90;;;21.00;71.20;;;;;;5073648;28;20187;-54
2021/01/29 20:45:40;;;;;;;1999.90;999.90;;;21.10;71.20;;;;;;5073956;28;20173;-60
2021/01/29 20:48:07;;;;;;;1999.90;999.90;;;21.10;71.30;;;;;;5073743;28;20180;-57
2021/01/29 20:50:39;;;;;;;1999.90;999.90;;;21.10;71.20;;;;;;5073635;28;20168;-60
2021/01/29 20:53:07;;;;;;;1999.90;999.90;;;21.00;71.20;;;;;;5073565;28;20216;-60
2021/01/29 20:55:37;;;;;;;1999.90;999.90;;;21.10;71.40;;;;;;5073583;28;20196;-60
2021/01/29 20:58:06;;;;;;;1999.90;999.90;;;21.00;71.60;;;;;;5073644;28;20252;-60
2021/01/29 21:00:33;;;;;;;1999.90;999.90;;;21.00;71.60;;;;;;5073487;28;20290;-60
2021/01/29 21:03:00;;;;;;;1999.90;999.90;;;21.00;71.50;;;;;;5073316;28;20260;-59